createdAt,value
2018-09-04T00:00:25.461Z,17.70
2018-09-04T00:02:56.168Z,17.80
2018-09-04T00:05:27.219Z,17.70
2018-09-04T00:07:57.900Z,17.70
2018-09-04T00:10:28.618Z,17.70
2018-09-04T00:12:59.321Z,17.70
2018-09-04T00:15:30.015Z,17.70
2018-09-04T00:18:00.912Z,17.70
2018-09-04T00:20:31.551Z,17.70
2018-09-04T00:23:02.210Z,17.70
2018-09-04T00:25:33.046Z,17.70
2018-09-04T00:28:03.838Z,17.60
2018-09-04T00:30:34.703Z,17.60
2018-09-04T00:33:05.385Z,17.60
2018-09-04T00:35:36.680Z,17.60
2018-09-04T00:38:08.321Z,17.60
2018-09-04T00:40:38.979Z,17.60
2018-09-04T00:43:09.599Z,17.60
2018-09-04T00:45:40.265Z,17.60
2018-09-04T00:48:11.033Z,17.50
2018-09-04T00:50:41.824Z,17.50
2018-09-04T00:53:12.461Z,17.50
2018-09-04T00:55:43.483Z,17.50
2018-09-04T00:58:14.142Z,17.50
2018-09-04T01:00:44.818Z,17.50
2018-09-04T01:03:15.479Z,17.50
2018-09-04T01:05:46.190Z,17.50
2018-09-04T01:08:16.875Z,17.50
2018-09-04T01:10:47.567Z,17.50
2018-09-04T01:13:18.229Z,17.50
2018-09-04T01:15:48.861Z,17.50
2018-09-04T01:18:19.529Z,17.50
2018-09-04T01:20:50.160Z,17.50
2018-09-04T01:23:21.013Z,17.50
2018-09-04T01:25:51.642Z,17.50
2018-09-04T01:28:22.303Z,17.40
2018-09-04T01:30:52.976Z,17.40
2018-09-04T01:33:23.598Z,17.40
2018-09-04T01:35:54.545Z,17.40
2018-09-04T01:38:25.238Z,17.40
2018-09-04T01:40:55.933Z,17.30
2018-09-04T01:43:26.596Z,17.30
2018-09-04T01:45:57.234Z,17.30
2018-09-04T01:48:27.942Z,17.30
2018-09-04T01:50:58.619Z,17.20
2018-09-04T01:53:29.276Z,17.20
2018-09-04T01:55:59.947Z,17.20
2018-09-04T01:58:30.615Z,17.10
2018-09-04T02:01:01.298Z,17.10
2018-09-04T02:03:32.122Z,17.10
2018-09-04T02:06:02.821Z,17.00
2018-09-04T02:08:33.483Z,17.00
2018-09-04T02:11:04.535Z,16.90
2018-09-04T02:13:35.219Z,16.90
2018-09-04T02:16:06.548Z,16.90
2018-09-04T02:18:37.261Z,16.90
2018-09-04T02:21:07.906Z,16.80
2018-09-04T02:23:38.563Z,16.80
2018-09-04T02:26:09.187Z,16.80
2018-09-04T02:28:39.859Z,16.80
2018-09-04T02:31:10.490Z,16.80
2018-09-04T02:33:41.178Z,16.80
2018-09-04T02:36:11.830Z,16.80
2018-09-04T02:38:42.487Z,16.70
2018-09-04T02:41:13.131Z,16.70
2018-09-04T02:43:43.794Z,16.70
2018-09-04T02:46:14.425Z,16.70
2018-09-04T02:48:45.122Z,16.70
2018-09-04T02:51:15.770Z,16.70
2018-09-04T02:53:46.503Z,16.70
2018-09-04T02:56:17.170Z,16.70
2018-09-04T02:58:47.833Z,16.70
2018-09-04T03:01:18.494Z,16.60
2018-09-04T03:03:49.131Z,16.60
2018-09-04T03:06:19.811Z,16.70
2018-09-04T03:08:50.449Z,16.60
2018-09-04T03:11:21.311Z,16.60
2018-09-04T03:13:52.006Z,16.60
2018-09-04T03:16:22.820Z,16.50
2018-09-04T03:18:53.446Z,16.50
2018-09-04T03:21:24.109Z,16.50
2018-09-04T03:23:54.746Z,16.60
2018-09-04T03:26:25.418Z,16.50
2018-09-04T03:28:56.038Z,16.50
2018-09-04T03:31:26.741Z,16.40
2018-09-04T03:33:57.911Z,16.40
2018-09-04T03:36:28.551Z,16.40
2018-09-04T03:38:59.224Z,16.30
2018-09-04T03:41:29.900Z,16.30
2018-09-04T03:44:00.558Z,16.30
2018-09-04T03:46:31.190Z,16.30
2018-09-04T03:49:01.954Z,16.20
2018-09-04T03:51:32.933Z,16.20
2018-09-04T03:54:03.610Z,16.20
2018-09-04T03:56:34.254Z,16.20
2018-09-04T03:59:04.930Z,16.10
2018-09-04T04:01:35.636Z,16.10
2018-09-04T04:04:06.789Z,16.10
2018-09-04T04:06:37.438Z,16.10
2018-09-04T04:09:09.303Z,16.10
2018-09-04T04:11:40.208Z,16.10
2018-09-04T04:14:10.864Z,16.10
2018-09-04T04:16:41.554Z,16.10
2018-09-04T04:19:12.170Z,16.10
2018-09-04T04:21:42.831Z,16.10
2018-09-04T04:24:13.552Z,16.00
2018-09-04T04:26:44.206Z,16.00
2018-09-04T04:29:14.872Z,16.00
2018-09-04T04:31:45.553Z,15.90
2018-09-04T04:34:16.255Z,15.90
2018-09-04T04:36:46.914Z,15.90
2018-09-04T04:39:17.546Z,15.90
2018-09-04T04:41:50.227Z,15.90
2018-09-04T04:44:20.855Z,15.90
2018-09-04T04:46:51.568Z,15.90
2018-09-04T04:49:22.175Z,15.90
2018-09-04T04:51:53.150Z,15.90
2018-09-04T04:54:23.811Z,15.90
2018-09-04T04:56:54.441Z,15.90
2018-09-04T04:59:25.103Z,15.90
2018-09-04T05:01:55.767Z,15.90
2018-09-04T05:04:26.446Z,15.90
2018-09-04T05:06:57.183Z,15.90
2018-09-04T05:09:27.870Z,15.80
2018-09-04T05:11:58.502Z,15.80
2018-09-04T05:14:29.186Z,15.80
2018-09-04T05:16:59.826Z,15.80
2018-09-04T05:19:30.491Z,15.80
2018-09-04T05:22:01.163Z,15.80
2018-09-04T05:24:31.794Z,15.80
2018-09-04T05:27:02.475Z,15.80
2018-09-04T05:29:33.165Z,15.80
2018-09-04T05:32:09.350Z,15.80
2018-09-04T05:34:40.011Z,15.80
2018-09-04T05:37:10.670Z,15.80
2018-09-04T05:39:41.326Z,15.80
2018-09-04T05:42:17.405Z,15.80
2018-09-04T05:44:48.064Z,15.80
2018-09-04T05:47:18.782Z,15.80
2018-09-04T05:49:49.481Z,15.80
2018-09-04T05:52:20.114Z,15.80
2018-09-04T05:54:50.803Z,15.80
2018-09-04T05:57:21.465Z,15.90
2018-09-04T05:59:52.362Z,15.90
2018-09-04T06:02:23.018Z,16.00
2018-09-04T06:04:53.677Z,16.00
2018-09-04T06:07:24.407Z,16.00
2018-09-04T06:09:55.071Z,16.00
2018-09-04T06:12:25.706Z,16.10
2018-09-04T06:14:56.363Z,16.10
2018-09-04T06:17:27.003Z,16.10
2018-09-04T06:19:57.864Z,16.20
2018-09-04T06:22:28.679Z,16.20
2018-09-04T06:24:59.338Z,16.20
2018-09-04T06:27:30.006Z,16.30
2018-09-04T06:30:00.857Z,16.30
2018-09-04T06:32:31.570Z,16.30
2018-09-04T06:35:02.210Z,16.40
2018-09-04T06:37:32.873Z,16.40
2018-09-04T06:40:03.770Z,16.50
2018-09-04T06:42:34.444Z,16.60
2018-09-04T06:45:05.957Z,16.60
2018-09-04T06:47:36.674Z,16.70
2018-09-04T06:50:07.414Z,16.80
2018-09-04T06:52:38.038Z,16.80
2018-09-04T06:55:09.070Z,16.90
2018-09-04T06:57:39.775Z,17.00
2018-09-04T07:00:13.599Z,17.10
2018-09-04T07:02:44.265Z,17.20
2018-09-04T07:05:14.924Z,17.30
2018-09-04T07:07:45.781Z,17.40
2018-09-04T07:10:16.451Z,17.50
2018-09-04T07:12:47.119Z,17.50
2018-09-04T07:15:17.782Z,17.60
2018-09-04T07:17:48.422Z,17.70
2018-09-04T07:20:19.473Z,17.70
2018-09-04T07:22:50.127Z,17.80
2018-09-04T07:25:20.802Z,17.80
2018-09-04T07:27:52.319Z,17.90
2018-09-04T07:30:23.003Z,17.90
2018-09-04T07:32:53.694Z,18.00
2018-09-04T07:35:24.067Z,18.00
2018-09-04T07:37:54.909Z,18.10
2018-09-04T07:40:25.606Z,18.20
2018-09-04T07:42:56.269Z,18.30
2018-09-04T07:45:26.915Z,18.30
2018-09-04T07:47:57.586Z,18.40
2018-09-04T07:50:28.242Z,18.50
2018-09-04T07:52:58.907Z,18.60
2018-09-04T07:55:29.536Z,18.60
2018-09-04T07:58:00.214Z,18.70
2018-09-04T08:00:31.035Z,18.70
2018-09-04T08:03:01.708Z,18.80
2018-09-04T08:05:32.400Z,18.80
2018-09-04T08:08:03.060Z,18.80
2018-09-04T08:10:35.555Z,18.90
2018-09-04T08:13:07.282Z,19.00
2018-09-04T08:15:38.061Z,19.00
2018-09-04T08:18:08.704Z,19.00
2018-09-04T08:20:39.539Z,19.10
2018-09-04T08:23:10.202Z,19.20
2018-09-04T08:25:40.869Z,19.20
2018-09-04T08:28:11.528Z,19.20
2018-09-04T08:30:42.193Z,19.30
2018-09-04T08:33:12.900Z,19.30
2018-09-04T08:35:43.402Z,19.30
2018-09-04T08:38:14.084Z,19.40
2018-09-04T08:40:44.759Z,19.50
2018-09-04T08:43:15.448Z,19.50
2018-09-04T08:45:46.111Z,19.60
2018-09-04T08:48:18.421Z,19.60
2018-09-04T08:50:49.070Z,19.70
2018-09-04T08:53:19.775Z,19.70
2018-09-04T08:55:50.572Z,19.80
2018-09-04T08:58:21.450Z,19.90
2018-09-04T09:00:52.128Z,19.90
2018-09-04T09:03:23.079Z,20.00
2018-09-04T09:05:53.698Z,20.10
2018-09-04T09:08:24.046Z,20.20
2018-09-04T09:10:54.967Z,20.30
2018-09-04T09:13:25.561Z,20.30
2018-09-04T09:15:56.228Z,20.40
2018-09-04T09:18:26.875Z,20.50
2018-09-04T09:20:57.526Z,20.60
2018-09-04T09:23:28.189Z,20.70
2018-09-04T09:25:58.739Z,20.90
2018-09-04T09:28:29.087Z,20.90
2018-09-04T09:30:59.445Z,21.00
2018-09-04T09:33:29.779Z,21.00
2018-09-04T09:36:00.147Z,21.10
2018-09-04T09:38:30.611Z,21.10
2018-09-04T09:41:00.967Z,21.20
2018-09-04T09:43:31.638Z,21.30
2018-09-04T09:46:01.978Z,21.30
2018-09-04T09:48:37.680Z,21.40
2018-09-04T09:51:08.681Z,21.50
2018-09-04T09:53:39.502Z,21.60
2018-09-04T09:56:11.041Z,21.60
2018-09-04T09:58:41.857Z,21.70
2018-09-04T10:01:17.431Z,21.70
2018-09-04T10:03:53.267Z,21.80
2018-09-04T10:06:24.165Z,21.80
2018-09-04T10:08:54.547Z,21.80
2018-09-04T10:11:24.914Z,21.80
2018-09-04T10:13:55.333Z,21.80
2018-09-04T10:16:25.683Z,21.90
2018-09-04T10:18:56.052Z,22.00
2018-09-04T10:21:26.480Z,22.00
2018-09-04T10:23:57.301Z,22.10
2018-09-04T10:26:27.855Z,22.10
2018-09-04T10:28:58.278Z,22.20
2018-09-04T10:31:28.665Z,22.20
2018-09-04T10:33:59.023Z,22.30
2018-09-04T10:36:29.554Z,22.30
2018-09-04T10:39:05.355Z,22.40
2018-09-04T10:41:35.736Z,22.50
2018-09-04T10:44:06.086Z,22.50
2018-09-04T10:46:36.467Z,22.60
2018-09-04T10:49:06.829Z,22.80
2018-09-04T10:51:37.258Z,22.80
2018-09-04T10:54:07.618Z,22.80
2018-09-04T10:56:38.010Z,22.80
2018-09-04T10:59:08.503Z,22.90
2018-09-04T11:01:38.866Z,22.90
2018-09-04T11:04:09.215Z,22.90
2018-09-04T11:06:39.579Z,23.00
2018-09-04T11:09:11.083Z,23.20
2018-09-04T11:11:42.626Z,23.30
2018-09-04T11:14:13.007Z,23.30
2018-09-04T11:16:43.383Z,23.40
2018-09-04T11:19:13.727Z,23.40
2018-09-04T11:21:44.094Z,23.40
2018-09-04T11:24:14.643Z,23.50
2018-09-04T11:26:45.028Z,23.50
2018-09-04T11:29:15.404Z,23.50
2018-09-04T11:31:45.742Z,23.60
2018-09-04T11:34:16.121Z,23.70
2018-09-04T11:36:46.467Z,23.70
2018-09-04T11:39:16.843Z,23.80
2018-09-04T11:41:47.198Z,23.80
2018-09-04T11:44:17.558Z,24.00
2018-09-04T11:46:47.899Z,24.10
2018-09-04T11:49:18.482Z,24.20
2018-09-04T11:51:48.814Z,24.30
2018-09-04T11:54:19.169Z,24.40
2018-09-04T11:56:49.515Z,24.40
2018-09-04T11:59:19.899Z,24.50
2018-09-04T12:01:52.959Z,24.60
2018-09-04T12:04:23.342Z,24.60
2018-09-04T12:06:53.690Z,24.50
2018-09-04T12:09:24.140Z,24.60
2018-09-04T12:11:55.550Z,24.60
2018-09-04T12:14:30.149Z,24.60
2018-09-04T12:17:00.488Z,24.70
2018-09-04T12:19:39.068Z,24.80
2018-09-04T12:22:09.450Z,24.90
2018-09-04T12:24:39.852Z,25.00
2018-09-04T12:27:10.393Z,25.00
2018-09-04T12:29:41.399Z,25.00
2018-09-04T12:32:11.807Z,25.10
2018-09-04T12:34:42.206Z,25.00
2018-09-04T12:37:12.588Z,25.00
2018-09-04T12:39:47.191Z,25.00
2018-09-04T12:42:17.574Z,25.00
2018-09-04T12:44:47.939Z,25.10
2018-09-04T12:47:18.328Z,25.20
2018-09-04T12:49:48.879Z,25.20
2018-09-04T12:52:19.219Z,25.20
2018-09-04T12:54:49.863Z,25.20
2018-09-04T12:57:20.597Z,25.10
2018-09-04T12:59:51.007Z,25.10
2018-09-04T13:02:21.829Z,25.10
2018-09-04T13:04:52.358Z,25.00
2018-09-04T13:07:22.854Z,25.00
2018-09-04T13:09:53.178Z,24.90
2018-09-04T13:12:23.737Z,24.90
2018-09-04T13:14:54.108Z,24.90
2018-09-04T13:17:24.495Z,25.00
2018-09-04T13:19:54.873Z,25.20
2018-09-04T13:22:25.213Z,25.30
2018-09-04T13:24:55.583Z,25.30
2018-09-04T13:27:25.918Z,25.30
2018-09-04T13:29:56.278Z,25.20
2018-09-04T13:32:26.621Z,25.20
2018-09-04T13:34:57.535Z,25.20
2018-09-04T13:37:27.867Z,25.40
2018-09-04T13:40:00.946Z,25.40
2018-09-04T13:42:32.322Z,25.60
2018-09-04T13:45:02.732Z,25.60
2018-09-04T13:47:34.093Z,25.60
2018-09-04T13:50:04.594Z,25.60
2018-09-04T13:52:34.943Z,25.70
2018-09-04T13:55:05.829Z,25.70
2018-09-04T13:57:36.213Z,25.70
2018-09-04T14:00:08.159Z,25.70
2018-09-04T14:02:38.535Z,25.70
2018-09-04T14:05:08.914Z,25.70
2018-09-04T14:07:39.380Z,25.80
2018-09-04T14:10:10.067Z,25.90
2018-09-04T14:12:40.430Z,25.90
2018-09-04T14:15:11.295Z,25.90
2018-09-04T14:17:41.662Z,25.90
2018-09-04T14:20:11.998Z,25.80
2018-09-04T14:22:42.371Z,25.80
2018-09-04T14:25:12.713Z,25.80
2018-09-04T14:27:43.075Z,25.80
2018-09-04T14:30:16.807Z,25.80
2018-09-04T14:32:44.219Z,25.70
2018-09-04T14:35:14.550Z,25.70
2018-09-04T14:37:44.911Z,25.50
2018-09-04T14:40:15.270Z,25.40
2018-09-04T14:42:45.637Z,25.40
2018-09-04T14:45:16.201Z,25.30
2018-09-04T14:47:46.736Z,25.30
2018-09-04T14:50:17.322Z,25.30
2018-09-04T14:52:47.662Z,25.30
2018-09-04T14:55:18.027Z,25.30
2018-09-04T14:57:48.475Z,25.30
2018-09-04T15:00:18.871Z,25.20
2018-09-04T15:02:49.210Z,25.20
2018-09-04T15:05:19.591Z,25.30
2018-09-04T15:07:49.923Z,25.20
2018-09-04T15:10:20.291Z,25.20
2018-09-04T15:12:50.993Z,25.20
2018-09-04T15:15:21.386Z,25.20
2018-09-04T15:17:51.766Z,25.20
2018-09-04T15:20:22.102Z,25.20
2018-09-04T15:22:52.463Z,25.20
2018-09-04T15:25:22.941Z,25.20
2018-09-04T15:27:53.402Z,25.20
2018-09-04T15:30:23.766Z,25.20
2018-09-04T15:32:54.156Z,25.20
2018-09-04T15:35:24.509Z,25.20
2018-09-04T15:37:54.882Z,25.30
2018-09-04T15:40:25.234Z,25.30
2018-09-04T15:42:55.762Z,25.30
2018-09-04T15:45:26.282Z,25.20
2018-09-04T15:47:56.681Z,25.10
2018-09-04T15:50:27.029Z,25.10
2018-09-04T15:52:57.462Z,25.00
2018-09-04T15:55:27.947Z,25.00
2018-09-04T15:57:58.685Z,24.90
2018-09-04T16:00:29.017Z,24.90
2018-09-04T16:02:59.407Z,24.90
2018-09-04T16:05:29.771Z,24.90
2018-09-04T16:08:00.157Z,24.90
2018-09-04T16:10:30.503Z,25.00
2018-09-04T16:13:00.912Z,24.90
2018-09-04T16:15:31.271Z,24.90
2018-09-04T16:18:01.655Z,24.90
2018-09-04T16:20:32.651Z,24.90
2018-09-04T16:23:03.000Z,24.80
2018-09-04T16:25:33.375Z,24.80
2018-09-04T16:28:03.739Z,24.80
2018-09-04T16:30:34.122Z,24.80
2018-09-04T16:33:04.699Z,24.80
2018-09-04T16:35:35.118Z,24.80
2018-09-04T16:38:05.658Z,24.70
2018-09-04T16:40:36.243Z,24.80
2018-09-04T16:43:06.722Z,24.70
2018-09-04T16:45:37.095Z,24.80
2018-09-04T16:48:07.449Z,24.70
2018-09-04T16:50:37.814Z,24.70
2018-09-04T16:53:08.186Z,24.70
2018-09-04T16:55:38.539Z,24.60
2018-09-04T16:58:08.919Z,24.60
2018-09-04T17:00:39.263Z,24.60
2018-09-04T17:03:09.640Z,24.60
2018-09-04T17:05:40.015Z,24.50
2018-09-04T17:08:10.415Z,24.50
2018-09-04T17:10:40.763Z,24.40
2018-09-04T17:13:11.159Z,24.40
2018-09-04T17:15:41.993Z,24.30
2018-09-04T17:18:12.404Z,24.30
2018-09-04T17:20:42.745Z,24.30
2018-09-04T17:23:13.337Z,24.30
2018-09-04T17:25:43.911Z,24.20
2018-09-04T17:28:14.277Z,24.10
2018-09-04T17:30:44.631Z,24.10
2018-09-04T17:33:15.070Z,24.00
2018-09-04T17:35:45.414Z,23.90
2018-09-04T17:38:15.863Z,23.80
2018-09-04T17:40:46.358Z,23.70
2018-09-04T17:43:16.738Z,23.60
2018-09-04T17:45:47.144Z,23.50
2018-09-04T17:48:17.699Z,23.40
2018-09-04T17:50:48.121Z,23.40
2018-09-04T17:53:18.479Z,23.30
2018-09-04T17:55:48.863Z,23.20
2018-09-04T17:58:19.210Z,23.10
2018-09-04T18:00:49.651Z,23.10
2018-09-04T18:03:20.156Z,23.00
2018-09-04T18:05:50.697Z,22.90
2018-09-04T18:08:21.075Z,22.90
2018-09-04T18:10:51.446Z,22.80
2018-09-04T18:13:21.831Z,22.80
2018-09-04T18:15:52.562Z,22.70
2018-09-04T18:18:22.898Z,22.70
2018-09-04T18:20:53.270Z,22.60
2018-09-04T18:23:23.634Z,22.50
2018-09-04T18:25:54.004Z,22.50
2018-09-04T18:28:24.362Z,22.40
2018-09-04T18:30:54.781Z,22.30
2018-09-04T18:33:25.146Z,22.30
2018-09-04T18:35:55.525Z,22.30
2018-09-04T18:38:26.112Z,22.20
2018-09-04T18:40:56.491Z,22.20
2018-09-04T18:43:26.831Z,22.10
2018-09-04T18:45:57.676Z,22.00
2018-09-04T18:48:28.032Z,21.90
2018-09-04T18:50:58.435Z,21.80
2018-09-04T18:53:28.787Z,21.80
2018-09-04T18:55:59.179Z,21.70
2018-09-04T18:58:29.540Z,21.60
2018-09-04T19:00:59.919Z,21.60
2018-09-04T19:03:30.291Z,21.50
2018-09-04T19:06:00.854Z,21.40
2018-09-04T19:08:31.219Z,21.40
2018-09-04T19:11:01.599Z,21.30
2018-09-04T19:13:32.188Z,21.20
2018-09-04T19:16:02.560Z,21.20
2018-09-04T19:18:32.933Z,21.10
2018-09-04T19:21:03.291Z,21.10
2018-09-04T19:23:33.664Z,21.00
2018-09-04T19:26:04.194Z,21.00
2018-09-04T19:28:34.579Z,20.90
2018-09-04T19:31:04.998Z,20.90
2018-09-04T19:33:35.542Z,20.90
2018-09-04T19:36:05.921Z,20.80
2018-09-04T19:38:36.287Z,20.70
2018-09-04T19:41:06.678Z,20.70
2018-09-04T19:43:37.022Z,20.60
2018-09-04T19:46:07.581Z,20.60
2018-09-04T19:48:38.146Z,20.60
2018-09-04T19:51:08.545Z,20.60
2018-09-04T19:53:38.903Z,20.50
2018-09-04T19:56:09.323Z,20.50
2018-09-04T19:58:39.699Z,20.40
2018-09-04T20:01:10.090Z,20.40
2018-09-04T20:03:40.627Z,20.40
2018-09-04T20:06:11.474Z,20.30
2018-09-04T20:08:41.830Z,20.30
2018-09-04T20:11:12.304Z,20.30
2018-09-04T20:13:42.647Z,20.30
2018-09-04T20:16:13.010Z,20.30
2018-09-04T20:18:43.381Z,20.30
2018-09-04T20:21:13.726Z,20.30
2018-09-04T20:23:44.094Z,20.30
2018-09-04T20:26:14.443Z,20.30
2018-09-04T20:28:44.966Z,20.30
2018-09-04T20:31:15.353Z,20.30
2018-09-04T20:33:45.930Z,20.30
2018-09-04T20:36:16.594Z,20.30
2018-09-04T20:38:46.940Z,20.30
2018-09-04T20:41:17.472Z,20.20
2018-09-04T20:43:47.849Z,20.20
2018-09-04T20:46:18.225Z,20.20
2018-09-04T20:48:48.579Z,20.20
2018-09-04T20:51:18.991Z,20.10
2018-09-04T20:53:49.645Z,20.10
2018-09-04T20:56:20.125Z,20.10
2018-09-04T20:59:01.902Z,20.10
2018-09-04T21:01:44.206Z,20.10
2018-09-04T21:04:26.281Z,20.10
2018-09-04T21:06:56.015Z,20.00
2018-09-04T21:09:40.392Z,20.00
2018-09-04T21:12:10.762Z,20.00
2018-09-04T21:14:41.107Z,19.90
2018-09-04T21:17:11.506Z,19.90
2018-09-04T21:19:41.955Z,19.90
2018-09-04T21:22:12.618Z,19.90
2018-09-04T21:24:43.299Z,19.90
2018-09-04T21:27:13.675Z,19.90
2018-09-04T21:29:44.318Z,19.90
2018-09-04T21:32:15.051Z,19.80
2018-09-04T21:34:45.395Z,19.80
2018-09-04T21:37:16.118Z,19.80
2018-09-04T21:39:46.826Z,19.80
2018-09-04T21:42:17.529Z,19.80
2018-09-04T21:44:48.046Z,19.80
2018-09-04T21:47:18.431Z,19.80
2018-09-04T21:49:49.137Z,19.80
2018-09-04T21:52:19.794Z,19.70
2018-09-04T21:54:50.474Z,19.70
2018-09-04T21:57:20.824Z,19.70
2018-09-04T21:59:51.531Z,19.70
2018-09-04T22:02:21.894Z,19.60
2018-09-04T22:04:52.826Z,19.60
2018-09-04T22:07:23.472Z,19.60
2018-09-04T22:09:54.480Z,19.60
2018-09-04T22:12:25.118Z,19.50
2018-09-04T22:14:55.944Z,19.50
2018-09-04T22:17:26.751Z,19.50
2018-09-04T22:20:00.420Z,19.50
2018-09-04T22:22:42.346Z,19.50
2018-09-04T22:27:57.682Z,19.50
2018-09-04T22:30:33.322Z,19.40
2018-09-04T22:33:07.376Z,19.40
2018-09-04T22:35:40.928Z,19.40
2018-09-04T22:38:20.124Z,19.30
2018-09-04T22:40:55.149Z,19.30
2018-09-04T22:43:31.924Z,19.30
2018-09-04T22:46:11.131Z,19.30
2018-09-04T22:48:41.976Z,19.30
2018-09-04T22:51:18.110Z,19.30
2018-09-04T22:53:49.319Z,19.20
2018-09-04T22:56:20.519Z,19.30
2018-09-04T22:58:51.613Z,19.20
2018-09-04T23:01:22.670Z,19.20
2018-09-04T23:03:53.613Z,19.20
2018-09-04T23:06:24.660Z,19.20
2018-09-04T23:08:55.666Z,19.10
2018-09-04T23:11:26.578Z,19.10
2018-09-04T23:13:57.607Z,19.10
2018-09-04T23:16:28.899Z,19.10
2018-09-04T23:18:59.883Z,19.10
2018-09-04T23:21:32.514Z,19.10
2018-09-04T23:24:03.917Z,19.10
2018-09-04T23:26:35.067Z,19.10
2018-09-04T23:29:06.207Z,19.10
2018-09-04T23:31:37.476Z,19.10
2018-09-04T23:34:08.764Z,19.00
2018-09-04T23:36:40.109Z,19.00
2018-09-04T23:39:10.905Z,19.00
2018-09-04T23:41:41.704Z,19.00
2018-09-04T23:44:12.605Z,19.00
2018-09-04T23:46:43.319Z,19.00
2018-09-04T23:49:13.990Z,19.00
2018-09-04T23:51:44.712Z,19.00
2018-09-04T23:54:15.397Z,18.90
2018-09-04T23:56:46.120Z,18.90
2018-09-04T23:59:16.852Z,18.90
